Time;durP1;ratioP1;P1;durP2;ratioP2;P2;SDS_P1;SDS_P2;PMS_P1;PMS_P2;Temp;Humidity;BMP_temperature;BMP_pressure;BME280_temperature;BME280_humidity;BME280_pressure;Samples;Min_cycle;Max_cycle;Signal;HPM_P1;HPM_P2
2021/05/27 00:01:58;;;;;;;13.38;11.98;;;;;;;18.37;79.65;99964.25;4936351;29;20294;-64
2021/05/27 00:04:24;;;;;;;13.48;11.10;;;;;;;18.32;79.60;99953.13;4927274;29;20032;-65
2021/05/27 00:06:50;;;;;;;14.02;10.65;;;;;;;18.42;79.37;99962.22;4927005;29;20338;-64
2021/05/27 00:09:15;;;;;;;12.65;10.20;;;;;;;18.48;78.80;99960.22;4927061;29;20032;-64
2021/05/27 00:11:41;;;;;;;12.40;10.65;;;;;;;18.46;78.72;99965.56;4945356;29;20035;-65
2021/05/27 00:14:07;;;;;;;11.95;10.45;;;;;;;18.49;78.54;99965.41;4928537;29;20036;-65
2021/05/27 00:16:33;;;;;;;13.13;11.73;;;;;;;18.45;78.98;99958.59;4927014;29;20036;-64
2021/05/27 00:18:58;;;;;;;12.98;11.00;;;;;;;18.52;78.45;99959.16;4926681;29;20044;-64
2021/05/27 00:21:25;;;;;;;12.48;11.20;;;;;;;18.51;78.12;99955.66;4926992;29;20034;-65
2021/05/27 00:23:51;;;;;;;12.85;11.52;;;;;;;18.24;79.92;99958.75;4926748;29;20032;-65
2021/05/27 00:26:16;;;;;;;13.13;11.85;;;;;;;18.18;79.58;99953.78;4927219;29;20364;-64
2021/05/27 00:28:43;;;;;;;14.13;12.57;;;;;;;18.35;79.00;99960.00;4926383;29;20087;-64
2021/05/27 00:31:09;;;;;;;13.63;12.32;;;;;;;18.32;79.36;99955.75;4928313;29;20384;-64
2021/05/27 00:33:35;;;;;;;13.73;12.30;;;;;;;18.44;79.32;99967.38;4944922;29;20079;-63
2021/05/27 00:36:01;;;;;;;15.15;13.25;;;;;;;18.45;79.35;99962.09;4944640;29;20055;-64
2021/05/27 00:38:27;;;;;;;14.30;12.80;;;;;;;18.34;79.73;99947.78;4944573;29;20035;-64
2021/05/27 00:40:53;;;;;;;14.40;12.88;;;;;;;18.45;79.40;99959.47;4932551;29;20040;-64
2021/05/27 00:43:19;;;;;;;14.95;12.60;;;;;;;18.49;79.20;99961.94;4933999;29;20231;-64
2021/05/27 00:45:45;;;;;;;14.82;12.82;;;;;;;18.50;79.55;99963.59;4926687;29;20086;-64
2021/05/27 00:48:56;;;;;;;20.50;13.27;;;;;;;18.49;79.27;99961.94;4926512;29;20091;-64
2021/05/27 00:50:58;;;;;;;14.75;13.25;;;;;;;18.14;79.53;99905.03;4926485;29;20088;-65
2021/05/27 00:53:24;;;;;;;16.27;13.65;;;;;;;18.46;79.24;99969.00;4929690;29;20066;-66
2021/05/27 00:55:50;;;;;;;13.55;12.15;;;;;;;18.29;78.83;99963.75;4926121;29;20040;-65
2021/05/27 00:58:18;;;;;;;14.25;12.75;;;;;;;17.93;78.93;99910.44;4926142;29;20047;-65
2021/05/27 01:00:44;;;;;;;14.60;13.25;;;;;;;18.21;78.84;99960.66;4932634;29;20070;-64
2021/05/27 01:03:10;;;;;;;16.13;14.45;;;;;;;18.19;78.76;99959.91;4943875;29;20366;-65
2021/05/27 01:05:36;;;;;;;15.80;14.25;;;;;;;18.27;78.35;99957.72;4947349;29;20024;-65
2021/05/27 01:08:02;;;;;;;16.95;15.25;;;;;;;18.31;78.64;99961.91;4939590;29;20027;-65
2021/05/27 01:10:28;;;;;;;18.88;16.48;;;;;;;18.28;79.62;99960.31;4948232;29;20062;-64
2021/05/27 01:12:54;;;;;;;19.83;16.92;;;;;;;18.24;79.13;99961.38;4948835;29;20035;-65
2021/05/27 01:15:53;;;;;;;17.80;16.00;;;;;;;18.27;79.19;99953.34;4930210;29;20063;-65
2021/05/27 01:18:17;;;;;;;16.63;15.15;;;;;;;17.93;78.75;99904.34;4930846;29;20044;-64
2021/05/27 01:20:45;;;;;;;18.13;16.33;;;;;;;17.97;79.47;99910.28;4930101;29;20087;-65
2021/05/27 01:23:13;;;;;;;18.98;17.08;;;;;;;18.25;79.62;99955.19;4929843;29;20063;-65
2021/05/27 01:25:40;;;;;;;18.70;16.85;;;;;;;18.31;79.13;99956.66;4929610;29;20091;-64
2021/05/27 01:28:05;;;;;;;19.38;17.35;;;;;;;18.24;79.61;99955.25;4929168;29;20197;-65
2021/05/27 01:30:31;;;;;;;21.60;19.48;;;;;;;18.10;81.16;99951.53;4929511;29;20091;-65
2021/05/27 01:32:57;;;;;;;22.25;20.15;;;;;;;17.90;81.90;99949.00;4929798;29;20091;-65
2021/05/27 01:35:26;;;;;;;19.13;17.20;;;;;;;17.74;80.59;99893.84;4929866;29;20038;-64
2021/05/27 01:37:52;;;;;;;21.00;18.90;;;;;;;18.05;81.53;99943.03;4948220;29;20037;-64
2021/05/27 01:40:21;;;;;;;20.33;18.27;;;;;;;17.90;80.59;99928.03;4948144;29;20056;-65
2021/05/27 01:42:47;;;;;;;18.45;16.75;;;;;;;18.11;80.14;99945.38;4948262;29;20066;-65
2021/05/27 01:45:13;;;;;;;20.10;18.13;;;;;;;18.16;80.00;99939.91;4947759;29;20035;-64
2021/05/27 01:47:41;;;;;;;19.23;17.40;;;;;;;18.15;80.47;99950.47;4934759;29;20043;-64
2021/05/27 01:50:09;;;;;;;20.75;18.73;;;;;;;18.05;79.70;99932.56;4945897;29;20058;-64
2021/05/27 01:52:36;;;;;;;20.60;18.55;;;;;;;18.12;80.74;99948.84;4935189;29;20084;-64
2021/05/27 01:55:02;;;;;;;21.55;19.45;;;;;;;18.09;80.70;99957.69;4929318;29;20036;-65
2021/05/27 01:57:28;;;;;;;21.35;19.27;;;;;;;18.14;81.26;99949.59;4929477;29;20381;-64
2021/05/27 01:59:54;;;;;;;21.52;19.33;;;;;;;18.19;80.19;99950.25;4929311;29;20035;-64
2021/05/27 02:02:20;;;;;;;22.23;20.15;;;;;;;18.23;80.99;99945.72;4932168;29;20055;-64
2021/05/27 02:04:45;;;;;;;24.02;21.48;;;;;;;18.21;80.90;99943.19;4929451;29;20032;-64
2021/05/27 02:07:13;;;;;;;22.83;20.58;;;;;;;18.11;80.59;99932.28;4929167;29;20216;-65
2021/05/27 02:09:39;;;;;;;22.17;20.08;;;;;;;18.23;80.59;99943.09;4929220;29;20028;-62
2021/05/27 02:12:11;;;;;;;23.98;21.45;;;;;;;18.26;80.58;99942.94;4929012;29;20313;-62
2021/05/27 02:14:37;;;;;;;26.80;24.20;;;;;;;18.23;81.52;99938.69;4929060;29;20046;-62
2021/05/27 02:17:02;;;;;;;25.05;22.42;;;;;;;18.23;81.16;99935.22;4929245;29;20265;-62
2021/05/27 02:19:28;;;;;;;25.92;23.40;;;;;;;18.23;81.17;99954.41;4929016;29;20084;-64
2021/05/27 02:21:54;;;;;;;24.85;22.58;;;;;;;18.20;81.16;99958.94;4929142;29;20336;-64
2021/05/27 02:24:20;;;;;;;28.00;25.02;;;;;;;18.17;81.41;99951.25;4936394;29;20043;-63
2021/05/27 02:26:45;;;;;;;25.13;22.73;;;;;;;18.18;81.23;99955.56;4937573;29;20035;-64
2021/05/27 02:29:11;;;;;;;25.35;22.80;;;;;;;18.21;80.80;99960.66;4947232;29;20027;-65
2021/05/27 02:31:38;;;;;;;25.83;22.65;;;;;;;18.22;80.11;99963.19;4947313;29;20316;-65
2021/05/27 02:34:04;;;;;;;23.27;21.00;;;;;;;18.24;80.28;99952.63;4945994;29;20370;-65
2021/05/27 02:36:30;;;;;;;25.48;22.88;;;;;;;18.25;79.72;99952.56;4928781;29;20087;-64
2021/05/27 02:38:56;;;;;;;24.67;22.35;;;;;;;18.25;80.59;99955.19;4928796;29;20044;-64
2021/05/27 02:41:22;;;;;;;24.95;22.55;;;;;;;18.26;81.10;99954.25;4928437;29;20043;-64
2021/05/27 02:43:48;;;;;;;24.73;22.25;;;;;;;18.23;80.13;99953.59;4928387;29;20032;-64
2021/05/27 02:46:14;;;;;;;24.55;22.10;;;;;;;18.25;80.69;99964.84;4928617;29;20043;-65
2021/05/27 02:48:40;;;;;;;26.30;23.67;;;;;;;18.23;80.76;99958.81;4927745;29;20071;-65
2021/05/27 02:51:05;;;;;;;24.52;21.98;;;;;;;18.26;80.75;99961.28;4946794;29;20083;-65
2021/05/27 02:53:31;;;;;;;25.98;23.38;;;;;;;18.22;80.88;99960.56;4933716;29;20039;-64
2021/05/27 02:55:57;;;;;;;25.38;22.77;;;;;;;18.27;80.90;99961.22;4928208;29;20039;-64
2021/05/27 02:58:23;;;;;;;28.05;24.95;;;;;;;18.27;81.41;99960.34;4928344;29;20032;-65
2021/05/27 03:00:49;;;;;;;28.17;25.48;;;;;;;18.28;81.42;99962.06;4942840;29;20036;-65
2021/05/27 03:03:21;;;;;;;26.35;23.83;;;;;;;18.29;80.77;99967.22;4937887;29;20050;-65
2021/05/27 03:05:47;;;;;;;;;;;;;;;18.19;81.63;99962.53;4930973;29;20043;-65
2021/05/27 03:08:13;;;;;;;26.13;23.52;;;;;;;18.17;80.84;99969.59;4943954;29;19945;-66
2021/05/27 03:10:39;;;;;;;27.23;24.50;;;;;;;18.10;81.44;99958.56;4940741;29;20062;-66
2021/05/27 03:13:07;;;;;;;25.13;22.70;;;;;;;18.04;81.92;99967.59;4945270;29;20209;-67
2021/05/27 03:15:33;;;;;;;29.02;26.17;;;;;;;18.04;82.73;99967.59;4945462;29;20027;-66
2021/05/27 03:18:04;;;;;;;28.40;25.38;;;;;;;17.99;81.91;99959.06;4946030;29;20043;-66
2021/05/27 03:20:30;;;;;;;27.42;24.65;;;;;;;17.94;81.78;99961.06;4946396;29;20051;-65
2021/05/27 03:22:57;;;;;;;26.95;24.05;;;;;;;17.88;82.74;99969.19;4946133;29;20047;-64
2021/05/27 03:25:23;;;;;;;26.15;23.63;;;;;;;17.98;81.76;99961.78;4945146;29;20032;-64
2021/05/27 03:27:49;;;;;;;27.30;24.52;;;;;;;18.02;82.01;99969.41;4946178;29;20283;-64
2021/05/27 03:30:15;;;;;;;27.77;24.77;;;;;;;18.02;82.12;99961.53;4936036;29;20043;-64
2021/05/27 03:32:41;;;;;;;28.42;25.48;;;;;;;18.11;81.85;99965.50;4933436;29;20035;-66
2021/05/27 03:35:08;;;;;;;28.00;25.15;;;;;;;17.94;82.45;99945.34;4946317;29;20031;-65
2021/05/27 03:37:34;;;;;;;28.17;25.33;;;;;;;17.99;83.44;99969.56;4944809;29;20027;-65
2021/05/27 03:40:16;;;;;;;26.25;23.58;;;;;;;18.03;82.06;99972.91;4940674;29;20054;-65
2021/05/27 03:42:47;;;;;;;27.77;25.08;;;;;;;17.65;82.90;99910.88;4927500;29;20024;-65
2021/05/27 03:45:16;;;;;;;27.02;24.35;;;;;;;17.98;81.83;99951.28;4927712;29;20212;-65
2021/05/27 03:47:42;;;;;;;29.38;26.50;;;;;;;18.02;82.14;99958.94;4927497;29;20040;-65
2021/05/27 03:50:10;;;;;;;28.80;26.08;;;;;;;17.97;82.24;99952.22;4927276;29;20082;-65
2021/05/27 03:52:37;;;;;;;26.70;24.08;;;;;;;18.10;82.41;99961.19;4927316;29;20112;-65
2021/05/27 03:55:08;;;;;;;27.75;25.05;;;;;;;18.08;81.79;99969.09;4927172;29;20221;-66
2021/05/27 03:57:34;;;;;;;30.13;25.77;;;;;;;18.15;81.97;99960.97;4927148;29;20092;-66
2021/05/27 04:02:47;;;;;;;28.25;25.40;;;;;;;18.10;81.33;99967.28;4929967;29;20261;-65
2021/05/27 04:07:58;;;;;;;27.85;25.05;;;;;;;18.09;81.73;99965.56;4927253;29;20032;-64
2021/05/27 04:10:26;;;;;;;30.35;27.17;;;;;;;18.03;82.53;99970.28;4930295;29;20032;-65
2021/05/27 04:12:52;;;;;;;27.45;24.90;;;;;;;18.09;82.30;99970.81;4944936;29;20036;-65
2021/05/27 04:15:33;;;;;;;26.20;23.60;;;;;;;18.11;81.99;99971.59;4945393;29;20035;-65
2021/05/27 04:18:12;;;;;;;28.35;25.55;;;;;;;17.80;82.34;99913.66;4945138;29;20028;-65
2021/05/27 04:20:41;;;;;;;28.90;25.90;;;;;;;18.13;81.80;99974.16;4945443;29;20062;-65
2021/05/27 04:23:10;;;;;;;28.17;25.23;;;;;;;17.79;81.99;99923.31;4944061;29;20108;-66
2021/05/27 04:25:36;;;;;;;28.42;25.23;;;;;;;18.05;81.88;99961.41;4945215;29;20031;-66
2021/05/27 04:28:02;;;;;;;27.50;24.67;;;;;;;18.09;81.58;99976.06;4944202;29;20059;-67
2021/05/27 04:30:29;;;;;;;29.40;26.35;;;;;;;18.08;81.49;99966.47;4932316;29;20036;-66
2021/05/27 04:33:04;;;;;;;27.17;24.35;;;;;;;17.90;81.35;99930.66;4926645;29;20072;-66
2021/05/27 04:35:37;;;;;;;26.38;23.85;;;;;;;18.15;81.10;99976.69;4938288;29;20031;-64
2021/05/27 04:38:15;;;;;;;26.67;23.80;;;;;;;17.73;81.67;99913.13;4944693;29;20044;-65
2021/05/27 04:40:43;;;;;;;26.10;23.38;;;;;;;17.86;81.47;99927.34;4945125;29;20038;-64
2021/05/27 04:43:10;;;;;;;27.45;24.63;;;;;;;18.11;81.33;99975.97;4944552;29;20387;-64
2021/05/27 04:45:36;;;;;;;28.10;25.10;;;;;;;18.10;81.69;99971.69;4945218;29;20028;-65
2021/05/27 04:48:04;;;;;;;26.55;24.05;;;;;;;18.07;81.58;99977.03;4944074;29;20020;-65
2021/05/27 04:50:32;;;;;;;27.67;25.00;;;;;;;18.04;81.79;99978.06;4945033;29;20043;-65
2021/05/27 04:52:59;;;;;;;28.40;25.60;;;;;;;18.06;81.84;99973.59;4943110;29;20035;-65
2021/05/27 04:55:25;;;;;;;26.80;24.30;;;;;;;17.91;81.13;99935.00;4925687;29;20028;-63
2021/05/27 04:57:51;;;;;;;26.83;24.27;;;;;;;18.20;81.48;99972.06;4930983;29;20291;-62
2021/05/27 05:00:20;;;;;;;27.00;24.23;;;;;;;17.96;81.15;99922.53;4921561;29;20324;-62
2021/05/27 05:02:46;;;;;;;31.98;28.83;;;;;;;18.14;83.50;99972.38;4933512;29;20031;-60
2021/05/27 05:05:14;;;;;;;31.92;28.73;;;;;;;17.93;83.84;99975.09;4944164;29;20332;-62
2021/05/27 05:07:42;;;;;;;30.35;27.25;;;;;;;18.08;83.08;99978.75;4938240;29;20028;-62
2021/05/27 05:10:10;;;;;;;27.70;24.90;;;;;;;17.80;82.74;99921.53;4879484;28;20076;-62
2021/05/27 05:12:46;;;;;;;28.10;25.48;;;;;;;18.16;82.27;99971.38;4924230;29;20054;-63
2021/05/27 05:15:20;;;;;;;28.42;25.52;;;;;;;18.05;82.96;99974.50;4925196;29;20032;-62
2021/05/27 05:17:49;;;;;;;26.67;24.17;;;;;;;18.15;81.48;99971.44;4924796;29;20197;-61
2021/05/27 05:20:17;;;;;;;26.95;24.38;;;;;;;18.09;82.91;99970.81;4935115;29;20803;-62
2021/05/27 05:22:43;;;;;;;26.45;23.85;;;;;;;18.16;82.21;99966.13;4944747;29;20035;-61
2021/05/27 05:25:09;;;;;;;27.85;25.15;;;;;;;18.18;82.14;99972.13;4944360;29;20032;-61
2021/05/27 05:27:35;;;;;;;28.10;25.25;;;;;;;18.26;82.74;99967.38;4944824;29;20032;-63
2021/05/27 05:30:01;;;;;;;27.98;25.35;;;;;;;18.29;82.87;99961.97;4928194;29;20035;-62
2021/05/27 05:32:27;;;;;;;27.10;24.52;;;;;;;18.32;82.40;99968.00;4926077;29;20059;-63
2021/05/27 05:34:54;;;;;;;26.33;23.80;;;;;;;18.27;83.03;99957.72;4940860;29;20140;-63
2021/05/27 05:37:19;;;;;;;24.15;21.90;;;;;;;18.20;82.45;99961.56;4931155;29;20225;-61
2021/05/27 05:39:45;;;;;;;25.90;23.40;;;;;;;18.27;81.94;99955.97;4926150;29;20055;-61
2021/05/27 05:42:11;;;;;;;23.38;21.20;;;;;;;18.32;82.14;99960.97;4926095;29;20320;-61
2021/05/27 05:44:37;;;;;;;26.55;24.00;;;;;;;18.34;81.89;99955.66;4926129;29;20103;-61
2021/05/27 05:47:02;;;;;;;21.67;19.65;;;;;;;18.25;81.10;99954.34;4942561;29;20030;-62
2021/05/27 05:49:28;;;;;;;26.17;23.65;;;;;;;18.36;82.24;99952.03;4945535;29;20111;-62
2021/05/27 05:51:54;;;;;;;22.92;20.73;;;;;;;18.32;80.57;99950.50;4947050;29;20077;-63
2021/05/27 05:54:20;;;;;;;22.20;20.15;;;;;;;18.37;81.71;99955.50;4936941;29;20032;-63
2021/05/27 05:56:45;;;;;;;23.00;20.48;;;;;;;18.32;80.69;99945.25;4930525;29;20032;-62
2021/05/27 05:59:11;;;;;;;22.00;19.92;;;;;;;18.53;80.31;99947.75;4952093;29;20035;-63
2021/05/27 06:01:37;;;;;;;21.88;19.73;;;;;;;18.68;79.80;99946.94;4955778;28;20027;-64
2021/05/27 06:04:03;;;;;;;22.17;20.13;;;;;;;18.83;80.02;99955.81;4954064;29;20047;-64
2021/05/27 06:06:28;;;;;;;18.20;16.50;;;;;;;18.94;78.60;99960.53;4951192;28;20340;-63
2021/05/27 06:08:55;;;;;;;20.75;18.85;;;;;;;18.92;78.72;99960.63;4956302;28;20216;-63
2021/05/27 06:11:20;;;;;;;20.75;18.77;;;;;;;18.90;79.33;99964.28;4957099;29;20042;-64
2021/05/27 06:13:46;;;;;;;20.90;18.88;;;;;;;18.97;79.52;99960.41;4957770;29;20029;-65
2021/05/27 06:16:12;;;;;;;21.00;19.00;;;;;;;18.84;78.91;99961.91;4955679;28;20075;-64
2021/05/27 06:18:37;;;;;;;19.45;17.65;;;;;;;19.01;78.53;99963.69;4953029;28;20019;-64
2021/05/27 06:21:03;;;;;;;19.48;17.75;;;;;;;19.11;79.31;99959.66;4950177;29;20026;-65
2021/05/27 06:23:29;;;;;;;21.83;19.83;;;;;;;18.93;79.41;99966.72;4953426;29;20082;-65
2021/05/27 06:25:55;;;;;;;21.80;19.77;;;;;;;18.95;80.53;99964.84;4951365;29;20220;-64
2021/05/27 06:28:20;;;;;;;19.27;17.38;;;;;;;18.98;79.51;99964.69;4951360;29;20064;-65
2021/05/27 06:30:46;;;;;;;22.45;20.35;;;;;;;19.10;79.55;99966.69;4942562;28;20027;-63
2021/05/27 06:33:12;;;;;;;20.23;18.23;;;;;;;19.07;79.23;99963.38;4953733;29;20030;-63
2021/05/27 06:35:38;;;;;;;21.08;18.98;;;;;;;18.96;78.89;99951.66;4928800;29;20055;-63
2021/05/27 06:38:04;;;;;;;22.58;20.35;;;;;;;19.06;78.77;99967.78;4949439;29;20256;-64
2021/05/27 06:40:30;;;;;;;21.13;19.00;;;;;;;19.18;79.48;99970.69;4954208;29;20043;-64
2021/05/27 06:42:56;;;;;;;19.95;17.95;;;;;;;19.18;78.28;99971.53;4954981;28;20256;-66
2021/05/27 06:45:23;;;;;;;21.38;19.27;;;;;;;19.19;78.23;99970.59;4952481;29;20090;-66
2021/05/27 06:47:49;;;;;;;19.90;17.85;;;;;;;19.04;77.84;99969.66;4947208;29;20079;-65
2021/05/27 06:50:32;;;;;;;17.08;15.48;;;;;;;19.09;77.82;99978.13;4949533;29;20050;-65
2021/05/27 06:52:59;;;;;;;18.17;16.38;;;;;;;19.10;78.33;99974.56;4946692;29;20031;-64
2021/05/27 06:55:25;;;;;;;17.08;15.45;;;;;;;19.17;77.33;99979.50;4949807;29;20095;-66
2021/05/27 06:57:51;;;;;;;18.25;16.30;;;;;;;19.16;77.19;99977.81;4953525;28;20099;-64
2021/05/27 07:00:19;;;;;;;19.33;17.52;;;;;;;19.13;77.12;99971.78;4942612;29;20032;-64
2021/05/27 07:02:46;;;;;;;18.52;16.75;;;;;;;19.11;76.82;99976.28;4954174;29;20027;-65
2021/05/27 07:05:13;;;;;;;18.95;17.23;;;;;;;19.10;75.94;99973.72;4949089;29;20082;-65
2021/05/27 07:07:39;;;;;;;19.85;17.80;;;;;;;19.23;76.82;99979.19;4952979;28;20027;-63
2021/05/27 07:10:06;;;;;;;20.30;18.20;;;;;;;18.95;76.93;99981.47;4947937;29;20171;-61
2021/05/27 07:12:33;;;;;;;18.40;16.60;;;;;;;19.03;77.03;99986.31;4951096;29;20031;-63
2021/05/27 07:15:00;;;;;;;18.90;16.98;;;;;;;19.04;77.65;99977.53;4948470;29;20027;-61
2021/05/27 07:17:26;;;;;;;18.88;16.95;;;;;;;19.28;76.92;99974.53;4949632;29;20080;-61
2021/05/27 07:19:52;;;;;;;18.77;17.08;;;;;;;19.41;77.98;99978.22;4949172;28;20031;-62
2021/05/27 07:22:19;;;;;;;17.75;15.88;;;;;;;19.55;77.37;99971.34;4948547;29;20095;-61
2021/05/27 07:24:46;;;;;;;19.67;17.88;;;;;;;19.54;77.97;99974.91;4951534;28;20038;-62
2021/05/27 07:27:12;;;;;;;18.08;16.33;;;;;;;19.41;76.25;99959.81;4947276;29;20032;-61
2021/05/27 07:29:38;;;;;;;19.08;17.38;;;;;;;19.31;75.35;99976.97;4948231;28;20070;-61
2021/05/27 07:32:07;;;;;;;18.05;16.15;;;;;;;19.37;76.09;99981.94;4947711;29;20023;-61
2021/05/27 07:34:33;;;;;;;17.33;15.80;;;;;;;19.51;76.41;99977.69;4952546;29;20035;-61
2021/05/27 07:36:58;;;;;;;16.70;15.10;;;;;;;19.65;75.96;99969.91;4950004;29;20070;-63
2021/05/27 07:39:24;;;;;;;20.67;18.45;;;;;;;19.60;77.04;99962.28;4948869;29;20024;-61
2021/05/27 07:41:51;;;;;;;17.52;15.70;;;;;;;19.72;75.71;99976.53;4948843;28;20051;-63
2021/05/27 07:44:16;;;;;;;20.48;18.48;;;;;;;19.63;76.94;99969.16;4948286;29;20035;-62
2021/05/27 07:46:42;;;;;;;19.10;17.17;;;;;;;19.63;75.44;99977.03;4956267;28;20316;-62
2021/05/27 07:49:08;;;;;;;20.33;18.27;;;;;;;19.67;75.79;99970.69;4951494;29;20043;-64
2021/05/27 07:51:34;;;;;;;19.10;17.10;;;;;;;19.93;74.47;99978.94;4954063;28;20041;-63
2021/05/27 07:54:00;;;;;;;19.95;17.83;;;;;;;19.98;75.21;99958.50;4949801;29;20023;-62
2021/05/27 07:56:26;;;;;;;17.65;15.68;;;;;;;20.18;74.99;99973.16;4952430;29;20055;-61
2021/05/27 07:58:52;;;;;;;16.45;14.85;;;;;;;20.19;74.02;99974.84;4940739;29;20131;-63
2021/05/27 08:01:17;;;;;;;18.35;16.55;;;;;;;19.98;73.20;99976.91;4947379;29;20035;-60
2021/05/27 08:03:43;;;;;;;17.98;16.08;;;;;;;20.18;73.94;99974.00;4955014;28;20035;-61
2021/05/27 08:06:09;;;;;;;18.20;15.50;;;;;;;20.30;74.75;99969.81;4936988;29;20308;-63
2021/05/27 08:08:35;;;;;;;17.80;16.00;;;;;;;20.27;73.96;99950.75;4944158;29;20066;-61
2021/05/27 08:11:01;;;;;;;18.13;16.23;;;;;;;20.46;73.30;99966.31;4949991;29;20312;-61
2021/05/27 08:13:28;;;;;;;19.75;17.73;;;;;;;20.39;72.10;99965.81;4955119;29;20316;-62
2021/05/27 08:15:54;;;;;;;17.90;16.33;;;;;;;20.40;72.04;99972.78;4944641;29;20089;-60
2021/05/27 08:18:20;;;;;;;19.10;15.98;;;;;;;20.40;72.03;99972.78;4945827;29;20040;-59
2021/05/27 08:20:45;;;;;;;18.88;17.00;;;;;;;20.31;71.26;99968.88;4950367;29;20036;-59
2021/05/27 08:23:11;;;;;;;18.38;16.13;;;;;;;20.35;71.26;99972.19;4950862;29;20367;-60
2021/05/27 08:25:37;;;;;;;20.05;17.88;;;;;;;20.25;72.52;99974.50;4950967;29;20023;-59
2021/05/27 08:28:03;;;;;;;19.67;17.70;;;;;;;20.08;71.44;99971.97;4947398;29;20023;-61
2021/05/27 08:30:28;;;;;;;18.25;16.40;;;;;;;20.08;71.17;99983.34;4945828;29;20027;-61
2021/05/27 08:32:54;;;;;;;17.30;15.27;;;;;;;20.12;71.29;99971.72;4948613;29;20027;-60
2021/05/27 08:35:20;;;;;;;19.50;17.25;;;;;;;20.12;72.58;99974.38;4951370;29;20034;-60
2021/05/27 08:37:47;;;;;;;17.23;15.15;;;;;;;20.15;73.49;99970.69;4952272;28;20039;-61
2021/05/27 08:40:13;;;;;;;16.00;14.35;;;;;;;20.13;71.93;99968.16;4951134;29;20031;-61
2021/05/27 08:42:41;;;;;;;14.60;12.95;;;;;;;20.09;70.92;99982.41;4953361;28;20030;-62
2021/05/27 08:45:08;;;;;;;14.50;13.05;;;;;;;20.14;71.32;99974.28;4949363;29;20039;-61
2021/05/27 08:47:35;;;;;;;15.75;14.23;;;;;;;20.06;71.93;99971.22;4947263;29;20083;-60
2021/05/27 08:50:03;;;;;;;15.02;13.55;;;;;;;20.08;71.62;99978.09;4946634;29;20248;-60
2021/05/27 08:52:30;;;;;;;14.40;12.65;;;;;;;20.03;72.12;99979.28;4949018;29;20027;-60
2021/05/27 08:54:56;;;;;;;13.70;12.50;;;;;;;20.03;73.07;99974.88;4945308;29;20030;-61
2021/05/27 08:57:22;;;;;;;16.23;14.68;;;;;;;19.96;72.52;99981.41;4952230;29;20040;-61
2021/05/27 08:59:47;;;;;;;16.52;14.85;;;;;;;19.99;72.25;99978.59;4954149;29;20035;-62
2021/05/27 09:02:13;;;;;;;16.67;14.95;;;;;;;19.96;72.47;99984.03;4942227;28;20079;-61
2021/05/27 09:04:39;;;;;;;16.40;14.70;;;;;;;19.91;71.67;99975.53;4951217;28;20261;-61
2021/05/27 09:07:06;;;;;;;16.27;14.55;;;;;;;19.97;71.07;99981.31;4948109;29;20312;-60
2021/05/27 09:09:51;;;;;;;16.67;14.95;;;;;;;19.97;71.50;99977.84;4926375;29;20044;-61
2021/05/27 09:12:33;;;;;;;16.38;14.70;;;;;;;19.99;72.82;99983.84;4937165;29;20035;-62
2021/05/27 09:15:01;;;;;;;15.48;13.88;;;;;;;19.71;72.34;99929.31;4948771;29;20103;-61
2021/05/27 09:17:43;;;;;;;17.38;15.35;;;;;;;19.63;73.25;99940.25;4937959;29;20036;-61
2021/05/27 09:20:19;;;;;;;17.95;16.05;;;;;;;19.90;70.37;99989.66;4926540;29;20071;-60
2021/05/27 09:22:46;;;;;;;17.63;14.32;;;;;;;19.95;71.09;99982.31;4926712;29;20032;-59
2021/05/27 09:25:27;;;;;;;16.25;14.55;;;;;;;19.75;71.23;99939.59;4930085;29;20044;-62
2021/05/27 09:27:54;;;;;;;16.27;14.60;;;;;;;20.06;71.23;99985.22;4930121;29;20036;-62
2021/05/27 09:30:22;;;;;;;18.67;16.85;;;;;;;20.05;71.72;99983.53;4948492;29;20260;-62
2021/05/27 09:32:50;;;;;;;17.58;15.13;;;;;;;20.04;72.29;99989.72;4948135;29;20345;-61
2021/05/27 09:35:17;;;;;;;18.77;15.30;;;;;;;19.99;73.62;99986.50;4948162;29;20333;-62
2021/05/27 09:37:51;;;;;;;21.90;19.38;;;;;;;19.97;73.18;99988.38;4948315;29;20027;-60
2021/05/27 09:40:46;;;;;;;19.80;17.75;;;;;;;19.95;72.84;99990.22;4948034;29;20038;-66
2021/05/27 09:43:21;;;;;;;20.02;16.83;;;;;;;19.93;72.27;99976.31;4945228;29;20039;-62
2021/05/27 09:46:00;;;;;;;17.65;15.85;;;;;;;20.01;71.92;99982.00;4928424;29;20122;-61
2021/05/27 09:48:26;;;;;;;19.98;17.90;;;;;;;20.00;71.69;99980.31;4941103;29;20032;-62
2021/05/27 09:50:56;;;;;;;19.45;16.23;;;;;;;20.10;71.45;99976.22;4941277;29;20034;-60
2021/05/27 09:53:25;;;;;;;18.85;16.10;;;;;;;19.86;71.71;99925.88;4948067;29;20320;-61
2021/05/27 09:55:53;;;;;;;19.60;16.48;;;;;;;20.26;71.08;99976.19;4947950;29;20042;-62
2021/05/27 09:58:18;;;;;;;17.98;15.05;;;;;;;20.34;70.56;99962.63;4947836;29;20107;-61
2021/05/27 10:00:45;;;;;;;19.55;15.27;;;;;;;20.37;71.46;99967.69;4933762;29;20039;-62
2021/05/27 10:03:30;;;;;;;19.63;17.50;;;;;;;20.43;70.73;99975.22;4932332;29;20048;-61
2021/05/27 10:05:57;;;;;;;21.67;18.67;;;;;;;20.43;70.17;99969.13;4952996;28;20032;-61
2021/05/27 10:08:23;;;;;;;18.80;16.90;;;;;;;20.48;69.54;99974.97;4950095;29;20020;-61
2021/05/27 10:10:50;;;;;;;20.65;18.50;;;;;;;20.30;69.29;99961.94;4948457;29;20039;-62
2021/05/27 10:13:20;;;;;;;19.20;17.20;;;;;;;20.47;69.42;99975.91;4955760;28;20055;-61
2021/05/27 10:15:46;;;;;;;20.10;16.95;;;;;;;20.48;70.19;99981.06;4954495;28;20035;-61
2021/05/27 10:18:20;;;;;;;22.00;16.75;;;;;;;20.51;69.77;99975.63;4956276;28;20106;-61
2021/05/27 10:20:47;;;;;;;19.58;17.38;;;;;;;20.23;69.73;99929.03;4953645;28;20061;-61
2021/05/27 10:23:14;;;;;;;22.40;17.50;;;;;;;20.50;68.78;99983.63;4954662;28;20031;-61
2021/05/27 10:25:40;;;;;;;18.58;16.33;;;;;;;20.51;69.03;99987.94;4956840;28;20058;-61
2021/05/27 10:28:12;;;;;;;21.55;18.05;;;;;;;20.24;68.19;99943.88;4953462;28;20143;-61
2021/05/27 10:30:41;;;;;;;21.88;18.90;;;;;;;20.46;69.31;99992.63;4937139;28;20083;-61
2021/05/27 10:33:14;;;;;;;21.25;17.35;;;;;;;20.39;68.76;99986.03;4928871;29;20080;-61
2021/05/27 10:36:07;;;;;;;17.90;15.88;;;;;;;20.21;68.93;99946.69;4928781;29;20032;-61
2021/05/27 10:38:39;;;;;;;16.67;14.93;;;;;;;20.45;70.00;99985.66;4936174;29;20044;-62
2021/05/27 10:41:08;;;;;;;;;;;;;;;20.50;69.91;99986.25;4929281;29;20024;-60
2021/05/27 10:43:59;;;;;;;16.58;14.02;;;;;;;20.59;69.87;99990.13;4928685;29;19907;-61
2021/05/27 10:46:26;;;;;;;18.80;16.13;;;;;;;20.63;69.79;99989.00;4936429;29;20028;-60
2021/05/27 10:48:52;;;;;;;22.42;16.40;;;;;;;20.66;68.11;99986.19;4927162;29;20055;-60
2021/05/27 10:51:45;;;;;;;17.17;15.43;;;;;;;20.68;67.83;99987.84;4943745;29;20028;-60
2021/05/27 10:54:16;;;;;;;18.77;16.77;;;;;;;20.60;67.50;99970.78;4927981;29;20028;-60
2021/05/27 10:56:47;;;;;;;18.90;16.63;;;;;;;20.69;67.89;99986.03;4928475;29;20039;-61
2021/05/27 10:59:16;;;;;;;14.90;13.38;;;;;;;20.66;68.90;99978.28;4928440;29;20071;-61
2021/05/27 11:01:42;;;;;;;16.17;14.55;;;;;;;20.57;68.64;99982.31;4936296;29;20047;-61
2021/05/27 11:04:23;;;;;;;17.90;15.80;;;;;;;20.52;68.35;99976.47;4930574;29;20220;-61
2021/05/27 11:07:09;;;;;;;20.80;16.08;;;;;;;20.59;69.41;99980.44;4925588;29;20221;-61
2021/05/27 11:09:37;;;;;;;16.95;14.93;;;;;;;20.54;69.07;99971.97;4940538;29;20106;-61
2021/05/27 11:12:26;;;;;;;15.65;14.05;;;;;;;20.51;70.33;99962.47;4946069;29;20312;-61
2021/05/27 11:14:54;;;;;;;18.02;15.02;;;;;;;20.60;70.48;99978.66;4946598;29;20028;-61
2021/05/27 11:17:25;;;;;;;16.65;15.05;;;;;;;20.63;69.78;99965.31;4935791;29;20028;-61
2021/05/27 11:27:43;;;;;;;16.42;13.65;;;;;;;20.62;67.43;99974.16;4946294;29;20101;-61
2021/05/27 11:30:40;;;;;;;14.43;12.93;;;;;;;20.68;66.89;99971.22;4946048;29;20032;-61
2021/05/27 11:33:15;;;;;;;18.15;12.82;;;;;;;20.76;68.29;99963.69;4929573;29;20040;-61
2021/05/27 11:35:43;;;;;;;16.67;14.55;;;;;;;20.52;67.43;99908.03;4927607;29;20034;-60